createdAt,value
2017-08-06T12:59:40.522Z,23.9
2017-08-06T13:00:41.946Z,23.9
2017-08-06T13:02:03.481Z,23.8
2017-08-06T13:03:04.901Z,23.7
2017-08-06T13:04:26.416Z,23.5
2017-08-06T13:05:27.837Z,23.2
2017-08-06T13:06:49.964Z,23.2
2017-08-06T13:07:51.500Z,23.1
2017-08-06T13:09:13.521Z,23.1
2017-08-06T13:10:14.947Z,23.2
2017-08-06T13:11:36.530Z,23.3
2017-08-06T13:12:38.024Z,23.3
2017-08-06T13:13:59.627Z,23.5
2017-08-06T13:15:01.031Z,23.4
2017-08-06T13:16:22.608Z,23.5
2017-08-06T13:17:24.072Z,23.5
2017-08-06T13:18:45.662Z,23.5
2017-08-06T13:19:47.081Z,23.5
2017-08-06T13:21:08.612Z,23.6
2017-08-06T13:22:10.134Z,23.7
2017-08-06T13:23:31.651Z,24.1
2017-08-06T13:24:33.079Z,24.2
2017-08-06T13:25:54.676Z,24.4
2017-08-06T13:26:56.152Z,24.5
2017-08-06T13:28:17.747Z,24.5
2017-08-06T13:29:19.176Z,24.3
2017-08-06T13:30:40.726Z,24.6
2017-08-06T13:31:42.230Z,24.4
2017-08-06T13:33:04.334Z,24.8
2017-08-06T13:34:05.835Z,24.7
2017-08-06T13:35:27.332Z,24.8
2017-08-06T13:36:28.768Z,24.9
2017-08-06T13:37:50.369Z,24.9
2017-08-06T13:38:51.784Z,24.9
2017-08-06T13:40:13.306Z,24.8
2017-08-06T13:41:14.827Z,24.8
2017-08-06T13:42:36.427Z,24.7
2017-08-06T13:43:37.874Z,24.6
2017-08-06T13:44:59.597Z,24.7
2017-08-06T13:46:01.008Z,24.7
2017-08-06T13:47:22.542Z,24.5
2017-08-06T13:48:23.964Z,24.5
2017-08-06T13:49:45.586Z,24.5
2017-08-06T13:50:47.001Z,24.4
2017-08-06T13:52:08.543Z,24.3
2017-08-06T13:53:09.970Z,24.5
2017-08-06T13:54:31.481Z,24.7
2017-08-06T13:55:32.901Z,24.9
2017-08-06T13:56:54.438Z,25.0
2017-08-06T13:57:55.856Z,25.2
2017-08-06T13:59:17.381Z,25.5
2017-08-06T14:00:18.802Z,25.5
2017-08-06T14:01:40.338Z,25.4
2017-08-06T14:02:41.881Z,25.5
2017-08-06T14:04:03.889Z,25.6
2017-08-06T14:05:05.309Z,25.4
2017-08-06T14:06:26.846Z,25.1
2017-08-06T14:07:28.267Z,25.2
2017-08-06T14:08:49.820Z,25.1
2017-08-06T14:09:51.240Z,25.1
2017-08-06T14:11:12.758Z,25.2
2017-08-06T14:12:14.175Z,25.3
2017-08-06T14:13:35.710Z,25.2
2017-08-06T14:14:37.135Z,25.1
2017-08-06T14:15:58.652Z,25.2
2017-08-06T14:17:00.918Z,25.0
2017-08-06T14:18:22.433Z,24.6
2017-08-06T14:19:23.874Z,24.6
2017-08-06T14:20:45.880Z,24.6
2017-08-06T14:21:47.301Z,24.5
2017-08-06T14:23:08.838Z,24.3
2017-08-06T14:24:10.260Z,24.5
2017-08-06T14:25:31.775Z,24.3
2017-08-06T14:26:33.288Z,24.4
2017-08-06T14:27:54.871Z,24.4
2017-08-06T14:28:56.293Z,24.5
2017-08-06T14:30:18.313Z,24.5
2017-08-06T14:31:19.732Z,24.7
2017-08-06T14:32:41.293Z,24.8
2017-08-06T14:33:42.732Z,24.8
2017-08-06T14:35:04.252Z,24.9
2017-08-06T14:36:05.674Z,25.0
2017-08-06T14:37:27.213Z,24.9
2017-08-06T14:38:28.636Z,24.8
2017-08-06T14:39:50.149Z,24.8
2017-08-06T14:40:51.570Z,24.8
2017-08-06T14:42:13.595Z,24.7
2017-08-06T14:43:15.014Z,24.6
2017-08-06T14:44:36.532Z,24.7
2017-08-06T14:45:37.951Z,24.7
2017-08-06T14:46:59.489Z,24.8
2017-08-06T14:48:00.906Z,24.7
2017-08-06T14:49:22.422Z,24.6
2017-08-06T14:50:23.852Z,24.5
2017-08-06T14:51:45.390Z,24.5
2017-08-06T14:52:46.813Z,24.5
2017-08-06T14:54:16.884Z,24.6
2017-08-06T14:55:18.301Z,24.7
2017-08-06T14:56:39.837Z,24.9
2017-08-06T14:57:41.255Z,24.9
2017-08-06T14:59:04.266Z,25.0
2017-08-06T15:00:05.687Z,25.1
2017-08-06T15:01:27.220Z,25.0
2017-08-06T15:02:28.642Z,24.8
2017-08-06T15:03:50.178Z,24.8
2017-08-06T15:04:51.611Z,24.7
2017-08-06T15:06:13.627Z,24.7
2017-08-06T15:07:15.049Z,24.7
2017-08-06T15:08:36.605Z,24.9
2017-08-06T15:09:38.019Z,25.1
2017-08-06T15:10:59.546Z,25.0
2017-08-06T15:12:00.970Z,25.1
2017-08-06T15:13:22.504Z,24.9
2017-08-06T15:14:23.921Z,24.7
2017-08-06T15:15:45.443Z,24.7
2017-08-06T15:16:46.858Z,24.5
2017-08-06T15:18:08.889Z,24.5
2017-08-06T15:19:10.311Z,24.6
2017-08-06T15:20:31.826Z,24.7
2017-08-06T15:21:33.304Z,24.7
2017-08-06T15:22:54.850Z,24.7
2017-08-06T15:23:56.249Z,24.8
2017-08-06T15:25:17.764Z,25.0
2017-08-06T15:26:19.188Z,25.1
2017-08-06T15:27:40.716Z,25.0
2017-08-06T15:28:42.135Z,25.2
2017-08-06T15:30:04.144Z,25.5
2017-08-06T15:31:05.563Z,25.3
2017-08-06T15:32:27.100Z,25.3
2017-08-06T15:33:28.519Z,25.4
2017-08-06T15:34:50.539Z,25.3
2017-08-06T15:35:51.959Z,25.3
2017-08-06T15:37:13.499Z,25.2
2017-08-06T15:38:14.920Z,25.1
2017-08-06T15:39:36.437Z,25.1
2017-08-06T15:40:37.855Z,25.1
2017-08-06T15:41:59.389Z,25.0
2017-08-06T15:43:00.807Z,25.1
2017-08-06T15:44:22.325Z,25.2
2017-08-06T15:45:23.745Z,25.1
2017-08-06T15:46:45.263Z,25.1
2017-08-06T15:47:46.681Z,25.2
2017-08-06T15:49:08.708Z,25.2
2017-08-06T15:50:10.128Z,25.3
2017-08-06T15:51:31.651Z,25.5
2017-08-06T15:52:33.073Z,25.4
2017-08-06T15:53:54.603Z,25.4
2017-08-06T15:54:56.025Z,25.3
2017-08-06T15:56:17.543Z,25.3
2017-08-06T15:57:18.962Z,25.2
2017-08-06T15:58:41.003Z,25.2
2017-08-06T15:59:42.412Z,25.1
2017-08-06T16:01:03.932Z,25.1
2017-08-06T16:02:05.355Z,25.0
2017-08-06T16:03:26.889Z,25.1
2017-08-06T16:04:28.307Z,25.1
2017-08-06T16:05:50.328Z,25.0
2017-08-06T16:06:51.747Z,24.9
2017-08-06T16:08:13.279Z,24.8
2017-08-06T16:09:14.700Z,24.8
2017-08-06T16:10:36.222Z,24.8
2017-08-06T16:11:37.647Z,24.8
2017-08-06T16:12:59.178Z,24.8
2017-08-06T16:14:00.598Z,25.0
2017-08-06T16:15:22.112Z,25.0
2017-08-06T16:16:23.532Z,25.1
2017-08-06T16:17:45.064Z,25.2
2017-08-06T16:18:46.486Z,25.3
2017-08-06T16:20:08.003Z,25.1
2017-08-06T16:21:09.423Z,25.1
2017-08-06T16:22:30.957Z,25.1
2017-08-06T16:23:32.377Z,24.9
2017-08-06T16:24:53.890Z,24.7
2017-08-06T16:25:55.309Z,24.5
2017-08-06T16:27:16.843Z,24.6
2017-08-06T16:28:18.265Z,24.6
2017-08-06T16:29:39.785Z,24.6
2017-08-06T16:30:41.210Z,24.6
2017-08-06T16:32:03.214Z,24.5
2017-08-06T16:33:04.634Z,24.5
2017-08-06T16:34:26.666Z,24.4
2017-08-06T16:35:28.087Z,24.3
2017-08-06T16:36:49.617Z,24.1
2017-08-06T16:37:51.034Z,24.2
2017-08-06T16:39:12.572Z,24.2
2017-08-06T16:40:13.993Z,24.2
2017-08-06T16:41:35.509Z,24.3
2017-08-06T16:42:36.931Z,24.3
2017-08-06T16:43:58.468Z,24.3
2017-08-06T16:44:59.887Z,24.2
2017-08-06T16:46:21.403Z,24.4
2017-08-06T16:47:22.823Z,24.4
2017-08-06T16:48:44.850Z,24.5
2017-08-06T16:49:46.268Z,24.6
2017-08-06T16:51:08.277Z,24.6
2017-08-06T16:52:50.677Z,24.6
2017-08-06T16:53:52.096Z,24.6
2017-08-06T16:55:13.615Z,24.7
2017-08-06T16:56:54.992Z,24.7
2017-08-06T16:57:56.413Z,24.8
2017-08-06T16:59:17.945Z,24.9
2017-08-06T17:00:19.365Z,24.7
2017-08-06T17:01:41.373Z,24.6
2017-08-06T17:02:42.793Z,24.5
2017-08-06T17:04:04.334Z,24.5
2017-08-06T17:05:05.753Z,24.3
2017-08-06T17:06:27.267Z,24.4
2017-08-06T17:07:28.687Z,24.4
2017-08-06T17:08:50.220Z,24.4
2017-08-06T17:09:51.643Z,24.3
2017-08-06T17:11:13.160Z,24.2
2017-08-06T17:12:14.583Z,24.2
2017-08-06T17:13:36.605Z,24.2
2017-08-06T17:14:38.025Z,24.1
2017-08-06T17:16:00.531Z,24.1
2017-08-06T17:17:01.951Z,23.9
2017-08-06T17:18:23.489Z,23.9
2017-08-06T17:19:24.910Z,23.9
2017-08-06T17:20:46.425Z,23.8
2017-08-06T17:21:47.848Z,23.8
2017-08-06T17:23:10.377Z,23.7
2017-08-06T17:24:11.800Z,23.7
2017-08-06T17:25:33.326Z,23.8
2017-08-06T17:26:34.747Z,23.9
2017-08-06T17:27:56.779Z,23.7
2017-08-06T17:28:58.195Z,23.9
2017-08-06T17:30:21.203Z,24.1
2017-08-06T17:31:22.622Z,24.0
2017-08-06T17:32:45.649Z,24.0
2017-08-06T17:33:47.122Z,24.1
2017-08-06T17:35:08.637Z,23.9
2017-08-06T17:36:10.055Z,23.9
2017-08-06T17:37:32.087Z,23.7
2017-08-06T17:38:33.510Z,23.7
2017-08-06T17:39:56.550Z,23.6
2017-08-06T17:40:57.967Z,23.5
2017-08-06T17:42:19.980Z,23.5
2017-08-06T17:43:21.398Z,23.5
2017-08-06T17:44:42.928Z,23.4
2017-08-06T17:45:44.348Z,23.3
2017-08-06T17:47:08.858Z,23.3
